Flight Track Log - Related Links

Times and Time Zones

All times are in EDT time to prevent confusion due to time zone crossing. See the N53NW flight status page for this flight to view local times or setup timezone preferences in your user account.

Time Position Orientation Groundspeed Altitude Reporting Facility
EDT Latitude Longitude Course Direction KTS MPH feet Rate Location/Type
Fri 01:56:20 PM 34.1747 -118.4861 124° Southeast 188 216 1,700  Level Los Angeles Center
Fri 01:57:22 PM 34.1442 -118.4314 124° Southeast 198 228 3,900 2,129 Climbing Los Angeles Center
Fri 01:58:24 PM 34.1894 -118.4169 15° North 212 244 6,100 2,256 Climbing Los Angeles Center
Fri 01:59:27 PM 34.2419 -118.4675 321° Northwest 237 273 8,600 2,208 Climbing Los Angeles Center
Fri 02:00:29 PM 34.3125 -118.4664 North 252 290 10,700 2,129 Climbing Los Angeles Center
Fri 02:01:31 PM 34.3994 -118.4358 16° North 295 339 13,000 1,839 Climbing Los Angeles Center
Fri 02:02:33 PM 34.4503 -118.3558 52° Northeast 300 345 14,500 1,548 Climbing Los Angeles Center
Fri 02:03:35 PM 34.5042 -118.2703 53° Northeast 313 360 16,200 1,597 Climbing Los Angeles Center
Fri 02:04:37 PM 34.5583 -118.1833 53° Northeast 319 367 17,800 1,742 Climbing Los Angeles Center
Fri 02:05:39 PM 34.6181 -118.0881 53° Northeast 323 372 19,800 1,728 Climbing Los Angeles Center
Fri 02:06:42 PM 34.6400 -117.9867 75° East 320 368 21,400 1,632 Climbing Los Angeles Center
Fri 02:07:44 PM 34.6517 -117.8817 82° East 319 367 23,200 1,694 Climbing Los Angeles Center
Fri 02:08:46 PM 34.6636 -117.7767 82° East 318 366 24,900 1,597 Climbing Los Angeles Center
Fri 02:09:48 PM 34.6869 -117.6739 75° East 318 366 26,500 1,597 Climbing Los Angeles Center
Fri 02:10:50 PM 34.7194 -117.5464 73° East 327 376 28,200 1,500 Climbing Los Angeles Center
Fri 02:11:52 PM 34.7472 -117.4364 73° East 340 391 29,600 1,355 Climbing Los Angeles Center
Fri 02:12:54 PM 34.7756 -117.3247 73° East 346 398 31,000 1,296 Climbing Los Angeles Center
Fri 02:13:57 PM 34.8047 -117.2114 73° East 351 404 32,300 1,344 Climbing Los Angeles Center
Fri 02:14:59 PM 34.8394 -117.0719 73° East 356 410 33,800 1,258 Climbing Los Angeles Center
Fri 02:16:01 PM 34.8931 -116.9642 59° Northeast 375 432 34,900 1,113 Climbing Los Angeles Center
Fri 02:17:03 PM 34.9606 -116.8664 50° Northeast 376 433 36,100 1,113 Climbing Los Angeles Center
Fri 02:18:05 PM 35.0283 -116.7647 51° Northeast 381 438 37,200 968 Climbing Los Angeles Center
Fri 02:19:07 PM 35.0972 -116.6614 51° Northeast 392 451 38,100 864 Climbing Los Angeles Center
Fri 02:20:10 PM 35.1664 -116.5572 51° Northeast 392 451 39,000 960 Climbing Los Angeles Center
Fri 02:21:12 PM 35.2511 -116.4300 51° Northeast 399 459 40,100 968 Climbing Los Angeles Center
Fri 02:22:14 PM 35.3214 -116.3222 51° Northeast 400 460 41,000 435 Climbing Los Angeles Center
Fri 02:23:16 PM 35.3936 -116.2133 51° Northeast 404 465 41,000  Level Los Angeles Center
Fri 02:24:18 PM 35.4700 -116.0961 51° Northeast 423 487 41,000  Level Los Angeles Center
Fri 02:25:20 PM 35.5486 -115.9769 51° Northeast 439 505 41,000  Level Los Angeles Center
Fri 02:26:22 PM 35.6433 -115.8339 51° Northeast 444 511 41,000 432 Level Los Angeles Center
Fri 02:27:25 PM 35.7208 -115.7139 51° Northeast 444 511 41,900 912 Climbing Los Angeles Center
Fri 02:28:27 PM 35.7967 -115.5978 51° Northeast 443 510 42,900 968 Climbing Los Angeles Center
Fri 02:29:29 PM 35.8686 -115.4853 52° Northeast 434 499 43,900 968 Climbing Los Angeles Center
Fri 02:30:31 PM 35.9381 -115.3778 51° Northeast 420 483 44,900 532 Climbing Los Angeles Center
Fri 02:31:33 PM 36.0208 -115.2503 51° Northeast 405 466 45,000 48 Climbing Los Angeles Center
Fri 02:32:35 PM 36.0911 -115.1422 51° Northeast 405 466 45,000  Level Los Angeles Center
Fri 02:33:38 PM 36.1708 -115.0428 45° Northeast 409 471 45,000  Level Los Angeles Center
Fri 02:34:40 PM 36.2522 -114.9400 46° Northeast 419 482 45,000  Level Los Angeles Center
Fri 02:35:42 PM 36.3475 -114.8169 46° Northeast 419 482 45,000  Level Los Angeles Center
Fri 02:36:44 PM 36.4275 -114.7142 46° Northeast 417 480 45,000  Level Los Angeles Center
Fri 02:37:46 PM 36.5083 -114.6094 46° Northeast 418 481 45,000  Level Los Angeles Center
Fri 02:38:48 PM 36.5886 -114.5042 46° Northeast 419 482 45,000  Level Los Angeles Center
Fri 02:39:51 PM 36.6672 -114.3997 47° Northeast 418 481 45,000  Level Los Angeles Center
Fri 02:40:53 PM 36.7453 -114.2944 47° Northeast 418 481 45,000  Level Los Angeles Center
Fri 02:41:55 PM 36.8211 -114.1514 56° Northeast 416 479 45,000  Level Los Angeles Center
Fri 02:42:57 PM 36.8778 -114.0289 60° Northeast 412 474 45,000  Level Los Angeles Center
Fri 02:43:59 PM 36.9358 -113.9081 59° Northeast 411 473 45,000  Level Los Angeles Center
Fri 02:45:02 PM 36.9958 -113.7836 59° Northeast 406 467 45,000  Level Los Angeles Center
Fri 02:46:04 PM 37.0533 -113.6628 59° Northeast 406 467 45,000  Level Los Angeles Center
Fri 02:47:06 PM 37.1106 -113.5439 59° Northeast 405 466 45,000  Level Los Angeles Center
Fri 02:48:08 PM 37.1678 -113.4228 59° Northeast 405 466 45,000  Level Los Angeles Center
Fri 02:49:10 PM 37.2358 -113.2797 59° Northeast 404 465 45,000  Level Los Angeles Center
Fri 02:50:12 PM 37.2925 -113.1597 59° Northeast 403 464 45,000  Level Los Angeles Center
Fri 02:51:14 PM 37.3483 -113.0397 60° Northeast 403 464 45,000  Level Los Angeles Center
Fri 02:52:17 PM 37.4033 -112.9192 60° Northeast 403 464 45,000  Level Los Angeles Center
Fri 02:53:19 PM 37.4694 -112.7733 60° Northeast 404 465 45,000  Level Los Angeles Center
Fri 02:54:22 PM 37.5281 -112.6525 59° Northeast 411 473 45,000  Level Los Angeles Center
Fri 02:55:23 PM 37.5861 -112.5311 59° Northeast 411 473 45,000  Level Los Angeles Center
Fri 02:56:05 PM 37.6311 -112.4339 60° Northeast 410 472 45,000  Level Salt Lake Center
Fri 02:57:07 PM 37.6875 -112.3103 60° Northeast 409 471 45,000  Level Salt Lake Center
Fri 02:58:09 PM 37.7531 -112.1936 55° Northeast 409 471 45,000  Level Salt Lake Center
Fri 02:59:11 PM 37.8214 -112.0794 53° Northeast 409 471 45,000  Level Salt Lake Center
Fri 03:00:13 PM 37.8881 -111.9636 54° Northeast 409 471 45,000  Level Salt Lake Center
Fri 03:01:15 PM 37.9689 -111.8228 54° Northeast 410 472 45,000  Level Salt Lake Center
Fri 03:02:17 PM 38.0356 -111.7050 54° Northeast 410 472 45,000  Level Salt Lake Center
Fri 03:03:19 PM 38.1014 -111.5869 55° Northeast 410 472 45,000  Level Salt Lake Center
Fri 03:04:22 PM 38.1675 -111.4681 55° Northeast 411 473 45,000  Level Salt Lake Center
Fri 03:05:24 PM 38.2347 -111.3492 54° Northeast 411 473 45,000  Level Salt Lake Center
Fri 03:06:26 PM 38.3031 -111.2300 54° Northeast 413 475 45,000  Level Salt Lake Center
Fri 03:07:28 PM 38.3836 -111.0864 54° Northeast 413 475 45,000  Level Salt Lake Center
Fri 03:08:30 PM 38.4519 -110.9642 54° Northeast 419 482 45,000  Level Salt Lake Center
Fri 03:09:32 PM 38.5058 -110.8342 62° Northeast 420 483 45,000  Level Salt Lake Center
Fri 03:10:34 PM 38.5464 -110.6944 70° East 423 487 45,000  Level Salt Lake Center
Fri 03:11:36 PM 38.5867 -110.5533 70° East 423 487 45,000  Level Salt Lake Center
Fri 03:12:28 PM 38.6261 -110.4122 70° East 423 487 45,000  Level Denver Center
Fri 03:13:30 PM 38.6661 -110.2692 70° East 425 489 45,000  Level Denver Center
Fri 03:14:32 PM 38.7056 -110.1264 70° East 425 489 45,000  Level Denver Center
Fri 03:15:34 PM 38.7444 -109.9864 70° East 424 488 45,000 -48 Level Denver Center
Fri 03:16:36 PM 38.7836 -109.8503 70° East 413 475 44,900 -339 Descending Denver Center
Fri 03:17:38 PM 38.8342 -109.7189 64° Northeast 413 475 44,300 -672 Descending Denver Center
Fri 03:18:41 PM 38.8928 -109.5508 66° East 427 491 43,500 -816 Descending Denver Center
Fri 03:19:43 PM 38.9436 -109.4114 65° Northeast 432 497 42,600 -871 Descending Denver Center
Fri 03:20:45 PM 38.9958 -109.2697 65° Northeast 440 506 41,700 -774 Descending Denver Center
Fri 03:21:47 PM 39.0469 -109.1272 65° Northeast 440 506 41,000 -311 Descending Denver Center
Fri 03:23:00 PM 39.1075 -108.9603 65° Northeast 438 504 41,000 -242 Level Salt Lake Center
Fri 03:23:51 PM 39.1575 -108.8231 65° Northeast 427 491 40,500 -1,062 Descending Denver Center
Fri 03:24:53 PM 39.2058 -108.6872 65° Northeast 425 489 39,000 -1,452 Descending Denver Center
Fri 03:25:55 PM 39.2544 -108.5506 65° Northeast 424 488 37,500 -1,645 Descending Denver Center
Fri 03:26:57 PM 39.3014 -108.4172 65° Northeast 413 475 35,600 -1,210 Descending Denver Center
Fri 03:27:59 PM 39.3464 -108.2881 66° East 391 450 35,000 -1,258 Descending Denver Center
Fri 03:29:01 PM 39.3983 -108.1389 66° East 384 442 33,000 -1,935 Descending Denver Center
Fri 03:30:03 PM 39.4417 -108.0144 66° East 384 442 31,000 -1,920 Descending Denver Center
Fri 03:31:06 PM 39.4836 -107.8989 65° Northeast 360 414 29,000 -1,776 Descending Denver Center
Fri 03:32:08 PM 39.5197 -107.7894 67° East 337 388 27,300 -1,645 Descending Denver Center
Fri 03:33:10 PM 39.5597 -107.6717 66° East 350 403 25,600 -1,839 Descending Denver Center
Fri 03:34:12 PM 39.6119 -107.5200 66° East 379 436 23,500 -1,887 Descending Denver Center
Fri 03:35:14 PM 39.6531 -107.4003 66° East 371 427 21,700 -1,694 Descending Denver Center
Fri 03:36:16 PM 39.6744 -107.2897 76° East 332 382 20,000 -1,645 Descending Denver Center
Fri 03:37:18 PM 39.6283 -107.2025 124° Southeast 300 345 18,300 -1,452 Descending Denver Center
Fri 03:38:20 PM 39.5800 -107.1236 128° Southeast 283 326 17,000 -1,161 Descending Denver Center
Fri 03:39:22 PM 39.5369 -107.0542 129° Southeast 251 289 15,900 -774 Descending Denver Center
Fri 03:40:24 PM 39.4936 -106.9981 135° Southeast 189 217 15,400 -1,210 Descending Denver Center
Fri 03:41:26 PM 39.4389 -106.9731 161° South 203 234 13,400 -1,344 Descending Denver Center
Fri 03:42:29 PM 39.3939 -106.9517 160° South 188 216 12,600 -672 Descending Denver Center
Fri 03:43:31 PM 39.3553 -106.9336 160° South 165 190 12,000 -1,016 Descending Denver Center
Fri 03:44:33 PM 39.3178 -106.9144 158° South 154 177 10,500 -1,548 Descending Denver Center
Fri 03:45:35 PM 39.2803 -106.8956 159° South 149 171 8,800 -1,113 Descending Denver Center
Fri 03:46:37 PM 39.2358 -106.8767 162° South 146 168 8,200 -581 Descending Denver Center

Login

Don't have an account? Register now (free) for customized features, flight alerts, and more!